sensor_id;sensor_type;location;lat;lon;timestamp;pressure;altitude;pressure_sealevel;temperature;humidity
9035;BME280;4552;43.422;24.592;2023-02-28T00:00:38;100713.31;;;7.73;100.00
9035;BME280;4552;43.422;24.592;2023-02-28T00:03:06;100726.19;;;7.59;100.00
9035;BME280;4552;43.422;24.592;2023-02-28T00:05:34;100716.78;;;7.72;100.00
9035;BME280;4552;43.422;24.592;2023-02-28T00:08:01;100732.41;;;7.72;100.00
9035;BME280;4552;43.422;24.592;2023-02-28T00:10:31;100741.19;;;7.83;100.00
9035;BME280;4552;43.422;24.592;2023-02-28T00:13:00;100740.28;;;7.78;100.00
9035;BME280;4552;43.422;24.592;2023-02-28T00:15:28;100743.69;;;7.72;100.00
9035;BME280;4552;43.422;24.592;2023-02-28T00:17:55;100724.69;;;7.81;100.00
9035;BME280;4552;43.422;24.592;2023-02-28T00:20:23;100744.59;;;7.76;100.00
9035;BME280;4552;43.422;24.592;2023-02-28T00:22:52;100743.78;;;7.83;100.00
9035;BME280;4552;43.422;24.592;2023-02-28T00:25:20;100735.03;;;7.73;100.00
9035;BME280;4552;43.422;24.592;2023-02-28T00:27:50;100753.19;;;7.69;100.00
9035;BME280;4552;43.422;24.592;2023-02-28T00:30:19;100761.94;;;7.74;100.00
9035;BME280;4552;43.422;24.592;2023-02-28T00:32:46;100775.88;;;7.76;100.00
9035;BME280;4552;43.422;24.592;2023-02-28T00:35:13;100774.19;;;7.79;100.00
9035;BME280;4552;43.422;24.592;2023-02-28T00:37:41;100790.63;;;7.75;100.00
9035;BME280;4552;43.422;24.592;2023-02-28T00:40:09;100792.44;;;7.81;100.00
9035;BME280;4552;43.422;24.592;2023-02-28T00:42:39;100796.75;;;7.79;100.00
9035;BME280;4552;43.422;24.592;2023-02-28T00:45:08;100781.00;;;7.70;100.00
9035;BME280;4552;43.422;24.592;2023-02-28T00:47:35;100778.31;;;7.62;100.00
9035;BME280;4552;43.422;24.592;2023-02-28T00:50:03;100792.44;;;7.82;100.00
9035;BME280;4552;43.422;24.592;2023-02-28T00:52:30;100807.22;;;7.85;100.00
9035;BME280;4552;43.422;24.592;2023-02-28T00:54:57;100793.41;;;7.92;100.00
9035;BME280;4552;43.422;24.592;2023-02-28T00:57:24;100775.84;;;7.73;100.00
9035;BME280;4552;43.422;24.592;2023-02-28T00:59:51;100787.13;;;7.73;100.00
9035;BME280;4552;43.422;24.592;2023-02-28T01:02:25;100758.19;;;7.51;100.00
9035;BME280;4552;43.422;24.592;2023-02-28T01:04:54;100777.44;;;7.62;100.00
9035;BME280;4552;43.422;24.592;2023-02-28T01:07:32;100775.84;;;7.73;100.00
9035;BME280;4552;43.422;24.592;2023-02-28T01:09:59;100783.59;;;7.67;100.00
9035;BME280;4552;43.422;24.592;2023-02-28T01:12:26;100801.78;;;7.64;100.00
9035;BME280;4552;43.422;24.592;2023-02-28T01:14:54;100766.00;;;7.51;100.00
9035;BME280;4552;43.422;24.592;2023-02-28T01:17:24;100760.88;;;7.57;100.00
9035;BME280;4552;43.422;24.592;2023-02-28T01:19:53;100784.41;;;7.66;100.00
9035;BME280;4552;43.422;24.592;2023-02-28T01:22:20;100739.81;;;7.39;100.00
9035;BME280;4552;43.422;24.592;2023-02-28T01:24:47;100760.88;;;7.57;100.00
9035;BME280;4552;43.422;24.592;2023-02-28T01:27:14;100766.03;;;7.52;100.00
9035;BME280;4552;43.422;24.592;2023-02-28T01:29:41;100763.47;;;7.57;100.00
9035;BME280;4552;43.422;24.592;2023-02-28T01:32:08;100774.88;;;7.66;100.00
9035;BME280;4552;43.422;24.592;2023-02-28T01:34:38;100783.50;;;7.59;100.00
9035;BME280;4552;43.422;24.592;2023-02-28T01:37:05;100778.31;;;7.62;100.00
9035;BME280;4552;43.422;24.592;2023-02-28T01:39:32;100766.97;;;7.57;100.00
9035;BME280;4552;43.422;24.592;2023-02-28T01:41:59;100750.38;;;7.51;100.00
9035;BME280;4552;43.422;24.592;2023-02-28T01:45:01;100769.56;;;7.57;100.00
9035;BME280;4552;43.422;24.592;2023-02-28T01:47:31;100774.03;;;7.69;100.00
9035;BME280;4552;43.422;24.592;2023-02-28T01:50:06;100758.16;;;7.48;100.00
9035;BME280;4552;43.422;24.592;2023-02-28T01:52:34;100775.50;;;7.43;100.00
9035;BME280;4552;43.422;24.592;2023-02-28T01:55:03;100751.78;;;7.23;100.00
9035;BME280;4552;43.422;24.592;2023-02-28T01:57:35;100764.88;;;7.31;100.00
9035;BME280;4552;43.422;24.592;2023-02-28T02:00:09;100768.09;;;7.08;100.00
9035;BME280;4552;43.422;24.592;2023-02-28T02:02:42;100761.13;;;7.07;100.00
9035;BME280;4552;43.422;24.592;2023-02-28T02:05:15;100776.56;;;6.95;100.00
9035;BME280;4552;43.422;24.592;2023-02-28T02:07:45;100755.63;;;6.86;100.00
9035;BME280;4552;43.422;24.592;2023-02-28T02:10:15;100773.16;;;6.99;100.00
9035;BME280;4552;43.422;24.592;2023-02-28T02:12:54;100778.28;;;6.93;100.00
9035;BME280;4552;43.422;24.592;2023-02-28T02:15:32;100774.88;;;6.97;100.00
9035;BME280;4552;43.422;24.592;2023-02-28T02:18:04;100775.41;;;6.74;100.00
9035;BME280;4552;43.422;24.592;2023-02-28T02:24:03;100767.47;;;6.68;100.00
9035;BME280;4552;43.422;24.592;2023-02-28T02:30:03;100770.88;;;6.62;100.00
9035;BME280;4552;43.422;24.592;2023-02-28T02:32:56;100729.63;;;6.31;100.00
9035;BME280;4552;43.422;24.592;2023-02-28T02:35:35;100739.25;;;6.35;100.00
9035;BME280;4552;43.422;24.592;2023-02-28T02:38:10;100763.56;;;6.40;100.00
9035;BME280;4552;43.422;24.592;2023-02-28T02:40:45;100761.06;;;6.45;100.00
9035;BME280;4552;43.422;24.592;2023-02-28T02:43:18;100747.78;;;6.28;100.00
9035;BME280;4552;43.422;24.592;2023-02-28T02:45:49;100747.78;;;6.28;100.00
9035;BME280;4552;43.422;24.592;2023-02-28T02:48:21;100726.22;;;6.34;100.00
9035;BME280;4552;43.422;24.592;2023-02-28T02:50:55;100753.16;;;6.40;100.00
9035;BME280;4552;43.422;24.592;2023-02-28T02:53:27;100732.75;;;6.09;100.00
9035;BME280;4552;43.422;24.592;2023-02-28T02:55:57;100761.63;;;6.27;100.00
9035;BME280;4552;43.422;24.592;2023-02-28T02:58:28;100769.31;;;6.20;100.00
9035;BME280;4552;43.422;24.592;2023-02-28T03:01:00;100745.72;;;6.08;100.00
9035;BME280;4552;43.422;24.592;2023-02-28T03:03:29;100764.81;;;6.10;100.00
9035;BME280;4552;43.422;24.592;2023-02-28T03:06:04;100768.38;;;6.16;100.00
9035;BME280;4552;43.422;24.592;2023-02-28T03:08:35;100780.34;;;6.08;100.00
9035;BME280;4552;43.422;24.592;2023-02-28T03:11:05;100759.72;;;6.16;100.00
9035;BME280;4552;43.422;24.592;2023-02-28T03:13:54;100772.78;;;6.20;100.00
9035;BME280;4552;43.422;24.592;2023-02-28T03:16:33;100783.06;;;6.13;100.00
9035;BME280;4552;43.422;24.592;2023-02-28T03:22:13;100788.59;;;5.86;100.00
9035;BME280;4552;43.422;24.592;2023-02-28T03:24:47;100774.56;;;5.78;100.00
9035;BME280;4552;43.422;24.592;2023-02-28T03:27:21;100761.31;;;5.65;100.00
9035;BME280;4552;43.422;24.592;2023-02-28T03:29:52;100798.50;;;5.62;100.00
9035;BME280;4552;43.422;24.592;2023-02-28T03:32:24;100803.34;;;5.46;100.00
9035;BME280;4552;43.422;24.592;2023-02-28T03:35:05;100805.97;;;5.47;100.00
9035;BME280;4552;43.422;24.592;2023-02-28T03:37:38;100795.66;;;5.50;100.00
9035;BME280;4552;43.422;24.592;2023-02-28T03:40:10;100805.38;;;5.60;100.00
9035;BME280;4552;43.422;24.592;2023-02-28T03:42:41;100810.50;;;5.57;100.00
9035;BME280;4552;43.422;24.592;2023-02-28T03:45:12;100820.28;;;5.70;100.00
9035;BME280;4552;43.422;24.592;2023-02-28T03:47:44;100831.03;;;5.45;100.00
9035;BME280;4552;43.422;24.592;2023-02-28T03:50:16;100808.06;;;5.24;100.00
9035;BME280;4552;43.422;24.592;2023-02-28T03:52:49;100826.53;;;5.38;100.00
9035;BME280;4552;43.422;24.592;2023-02-28T03:55:18;100848.34;;;5.46;100.00
9035;BME280;4552;43.422;24.592;2023-02-28T03:57:53;100842.75;;;5.28;100.00
9035;BME280;4552;43.422;24.592;2023-02-28T04:00:30;100830.47;;;5.19;100.00
9035;BME280;4552;43.422;24.592;2023-02-28T04:02:58;100844.38;;;5.23;100.00
9035;BME280;4552;43.422;24.592;2023-02-28T04:05:26;100840.53;;;5.45;100.00
9035;BME280;4552;43.422;24.592;2023-02-28T04:08:03;100845.56;;;5.37;100.00
9035;BME280;4552;43.422;24.592;2023-02-28T04:10:30;100825.22;;;5.16;100.00
9035;BME280;4552;43.422;24.592;2023-02-28T04:12:57;100819.81;;;5.09;100.00
9035;BME280;4552;43.422;24.592;2023-02-28T04:15:24;100806.81;;;5.07;100.00
9035;BME280;4552;43.422;24.592;2023-02-28T04:17:53;100797.06;;;4.96;100.00
9035;BME280;4552;43.422;24.592;2023-02-28T04:20:20;100820.00;;;5.15;100.00
9035;BME280;4552;43.422;24.592;2023-02-28T04:22:47;100798.19;;;5.07;100.00
9035;BME280;4552;43.422;24.592;2023-02-28T04:25:16;100827.88;;;5.19;100.00
9035;BME280;4552;43.422;24.592;2023-02-28T04:27:43;100831.66;;;5.35;100.00
9035;BME280;4552;43.422;24.592;2023-02-28T04:30:11;100842.81;;;5.31;100.00
9035;BME280;4552;43.422;24.592;2023-02-28T04:32:40;100846.34;;;5.33;100.00
9035;BME280;4552;43.422;24.592;2023-02-28T04:35:08;100855.28;;;5.46;100.00
9035;BME280;4552;43.422;24.592;2023-02-28T04:37:35;100836.09;;;5.39;100.00
9035;BME280;4552;43.422;24.592;2023-02-28T04:40:03;100841.91;;;5.29;100.00
9035;BME280;4552;43.422;24.592;2023-02-28T04:42:32;100846.97;;;5.23;100.00
9035;BME280;4552;43.422;24.592;2023-02-28T04:45:01;100858.72;;;5.07;100.00
9035;BME280;4552;43.422;24.592;2023-02-28T04:47:29;100838.00;;;5.09;100.00
9035;BME280;4552;43.422;24.592;2023-02-28T04:49:56;100835.44;;;5.10;100.00
9035;BME280;4552;43.422;24.592;2023-02-28T04:52:23;100839.75;;;5.10;100.00
9035;BME280;4552;43.422;24.592;2023-02-28T04:54:50;100842.97;;;5.00;100.00
9035;BME280;4552;43.422;24.592;2023-02-28T04:57:21;100846.31;;;4.94;100.00
9035;BME280;4552;43.422;24.592;2023-02-28T04:59:52;100854.44;;;5.09;100.00
9035;BME280;4552;43.422;24.592;2023-02-28T05:02:22;100818.56;;;4.90;100.00
9035;BME280;4552;43.422;24.592;2023-02-28T05:04:49;100856.13;;;5.07;100.00
9035;BME280;4552;43.422;24.592;2023-02-28T05:07:16;100867.41;;;5.09;100.00
9035;BME280;4552;43.422;24.592;2023-02-28T05:09:44;100880.75;;;5.26;100.00
9035;BME280;4552;43.422;24.592;2023-02-28T05:12:12;100882.34;;;5.18;100.00
9035;BME280;4552;43.422;24.592;2023-02-28T05:14:39;100857.88;;;5.08;100.00
9035;BME280;4552;43.422;24.592;2023-02-28T05:17:08;100883.88;;;5.10;100.00
9035;BME280;4552;43.422;24.592;2023-02-28T05:19:35;100870.75;;;5.04;100.00
9035;BME280;4552;43.422;24.592;2023-02-28T05:22:02;100884.38;;;4.95;100.00
9035;BME280;4552;43.422;24.592;2023-02-28T05:24:31;100897.44;;;5.00;100.00
9035;BME280;4552;43.422;24.592;2023-02-28T05:27:02;100906.16;;;5.02;100.00
9035;BME280;4552;43.422;24.592;2023-02-28T05:29:30;100894.72;;;4.94;100.00
9035;BME280;4552;43.422;24.592;2023-02-28T05:32:09;100873.47;;;4.74;100.00
9035;BME280;4552;43.422;24.592;2023-02-28T05:34:36;100886.72;;;4.85;100.00
9035;BME280;4552;43.422;24.592;2023-02-28T05:37:04;100889.16;;;4.79;100.00
9035;BME280;4552;43.422;24.592;2023-02-28T05:39:34;100877.78;;;4.74;100.00
9035;BME280;4552;43.422;24.592;2023-02-28T05:42:02;100886.88;;;4.92;100.00
9035;BME280;4552;43.422;24.592;2023-02-28T05:44:29;100890.28;;;4.90;100.00
9035;BME280;4552;43.422;24.592;2023-02-28T05:46:56;100906.66;;;4.87;100.00
9035;BME280;4552;43.422;24.592;2023-02-28T05:49:25;100872.59;;;4.74;100.00
9035;BME280;4552;43.422;24.592;2023-02-28T05:51:53;100907.75;;;4.97;100.00
9035;BME280;4552;43.422;24.592;2023-02-28T05:54:20;100891.81;;;4.82;100.00
9035;BME280;4552;43.422;24.592;2023-02-28T05:56:47;100890.16;;;4.84;100.00
9035;BME280;4552;43.422;24.592;2023-02-28T05:59:14;100908.31;;;4.84;100.00
9035;BME280;4552;43.422;24.592;2023-02-28T06:01:43;100908.38;;;4.87;100.00
9035;BME280;4552;43.422;24.592;2023-02-28T06:04:15;100901.59;;;4.92;100.00
9035;BME280;4552;43.422;24.592;2023-02-28T06:06:46;100934.22;;;5.18;100.00
9035;BME280;4552;43.422;24.592;2023-02-28T06:09:14;100905.94;;;4.93;100.00
9035;BME280;4552;43.422;24.592;2023-02-28T06:11:44;100903.25;;;4.90;100.00
9035;BME280;4552;43.422;24.592;2023-02-28T06:14:14;100900.81;;;4.96;100.00
9035;BME280;4552;43.422;24.592;2023-02-28T06:16:48;100916.31;;;4.93;100.00
9035;BME280;4552;43.422;24.592;2023-02-28T06:19:16;100939.81;;;4.99;100.00
9035;BME280;4552;43.422;24.592;2023-02-28T06:21:48;100931.13;;;4.98;100.00
9035;BME280;4552;43.422;24.592;2023-02-28T06:24:16;100925.22;;;5.04;100.00
9035;BME280;4552;43.422;24.592;2023-02-28T06:26:43;100935.56;;;5.02;100.00
9035;BME280;4552;43.422;24.592;2023-02-28T06:29:11;100910.97;;;4.87;100.00
9035;BME280;4552;43.422;24.592;2023-02-28T06:31:38;100918.78;;;4.88;100.00
9035;BME280;4552;43.422;24.592;2023-02-28T06:34:05;100916.00;;;4.81;100.00
9035;BME280;4552;43.422;24.592;2023-02-28T06:36:34;100939.97;;;5.06;100.00
9035;BME280;4552;43.422;24.592;2023-02-28T06:39:02;100944.66;;;5.19;100.00
9035;BME280;4552;43.422;24.592;2023-02-28T06:41:29;100945.59;;;5.24;100.00
9035;BME280;4552;43.422;24.592;2023-02-28T06:43:57;100930.13;;;5.29;100.00
9035;BME280;4552;43.422;24.592;2023-02-28T06:46:24;100929.13;;;5.21;100.00
9035;BME280;4552;43.422;24.592;2023-02-28T06:48:52;100910.03;;;5.19;100.00
9035;BME280;4552;43.422;24.592;2023-02-28T06:51:20;100937.84;;;5.26;100.00
9035;BME280;4552;43.422;24.592;2023-02-28T06:53:48;100929.41;;;5.33;100.00
9035;BME280;4552;43.422;24.592;2023-02-28T06:56:17;100934.81;;;5.44;100.00
9035;BME280;4552;43.422;24.592;2023-02-28T06:58:46;100939.38;;;5.54;100.00
9035;BME280;4552;43.422;24.592;2023-02-28T07:01:14;100948.81;;;5.50;100.00
9035;BME280;4552;43.422;24.592;2023-02-28T07:03:42;100947.69;;;5.39;100.00
9035;BME280;4552;43.422;24.592;2023-02-28T07:06:10;100959.94;;;5.45;100.00
9035;BME280;4552;43.422;24.592;2023-02-28T07:08:37;100947.34;;;5.24;100.00
9035;BME280;4552;43.422;24.592;2023-02-28T07:11:05;100933.69;;;5.32;100.00
9035;BME280;4552;43.422;24.592;2023-02-28T07:13:34;100946.97;;;5.46;100.00
9035;BME280;4552;43.422;24.592;2023-02-28T07:16:05;100913.69;;;5.27;100.00
9035;BME280;4552;43.422;24.592;2023-02-28T07:18:35;100925.84;;;5.29;100.00
9035;BME280;4552;43.422;24.592;2023-02-28T07:21:03;100955.28;;;5.30;100.00
9035;BME280;4552;43.422;24.592;2023-02-28T07:23:30;100963.25;;;5.38;100.00
9035;BME280;4552;43.422;24.592;2023-02-28T07:25:58;100962.22;;;5.31;100.00
9035;BME280;4552;43.422;24.592;2023-02-28T07:28:27;100975.00;;;5.23;100.00
9035;BME280;4552;43.422;24.592;2023-02-28T07:30:56;100975.19;;;5.31;100.00
9035;BME280;4552;43.422;24.592;2023-02-28T07:33:23;100969.97;;;5.29;100.00
9035;BME280;4552;43.422;24.592;2023-02-28T07:35:50;100974.25;;;5.29;100.00
9035;BME280;4552;43.422;24.592;2023-02-28T07:38:18;100962.06;;;5.25;100.00
9035;BME280;4552;43.422;24.592;2023-02-28T07:40:45;100949.16;;;5.28;100.00
9035;BME280;4552;43.422;24.592;2023-02-28T07:43:12;100980.97;;;5.19;100.00
9035;BME280;4552;43.422;24.592;2023-02-28T07:45:39;100977.25;;;5.10;100.00
9035;BME280;4552;43.422;24.592;2023-02-28T07:48:08;100972.38;;;4.88;100.00
9035;BME280;4552;43.422;24.592;2023-02-28T07:50:36;100978.63;;;4.96;100.00
9035;BME280;4552;43.422;24.592;2023-02-28T07:53:03;100973.66;;;5.05;100.00
9035;BME280;4552;43.422;24.592;2023-02-28T07:55:30;100960.41;;;4.93;100.00
9035;BME280;4552;43.422;24.592;2023-02-28T07:57:57;100971.94;;;5.04;100.00
9035;BME280;4552;43.422;24.592;2023-02-28T08:00:25;100983.28;;;5.09;100.00
9035;BME280;4552;43.422;24.592;2023-02-28T08:02:52;100982.53;;;5.13;100.00
9035;BME280;4552;43.422;24.592;2023-02-28T08:05:21;100976.31;;;5.06;100.00
9035;BME280;4552;43.422;24.592;2023-02-28T08:07:49;100987.06;;;5.21;100.00
9035;BME280;4552;43.422;24.592;2023-02-28T08:10:16;100987.88;;;5.19;100.00
9035;BME280;4552;43.422;24.592;2023-02-28T08:12:49;100974.00;;;5.18;100.00
9035;BME280;4552;43.422;24.592;2023-02-28T08:15:16;100973.06;;;5.15;100.00
9035;BME280;4552;43.422;24.592;2023-02-28T08:17:43;100975.81;;;5.21;100.00
9035;BME280;4552;43.422;24.592;2023-02-28T08:20:11;100988.72;;;5.18;100.00
9035;BME280;4552;43.422;24.592;2023-02-28T08:22:40;100946.09;;;5.08;100.00
9035;BME280;4552;43.422;24.592;2023-02-28T08:25:08;100970.69;;;5.24;100.00
9035;BME280;4552;43.422;24.592;2023-02-28T08:27:39;100972.97;;;5.12;100.00
9035;BME280;4552;43.422;24.592;2023-02-28T08:30:07;100969.59;;;5.14;100.00
9035;BME280;4552;43.422;24.592;2023-02-28T08:32:36;100988.91;;;5.25;100.00
9035;BME280;4552;43.422;24.592;2023-02-28T08:35:04;100963.59;;;5.17;100.00
9035;BME280;4552;43.422;24.592;2023-02-28T08:37:31;100979.53;;;5.32;100.00
9035;BME280;4552;43.422;24.592;2023-02-28T08:40:00;100969.13;;;5.32;100.00
9035;BME280;4552;43.422;24.592;2023-02-28T08:42:31;100974.41;;;5.35;100.00
9035;BME280;4552;43.422;24.592;2023-02-28T08:44:58;100947.56;;;5.33;100.00
9035;BME280;4552;43.422;24.592;2023-02-28T08:47:25;100960.88;;;5.48;100.00
9035;BME280;4552;43.422;24.592;2023-02-28T08:49:53;100964.16;;;5.41;100.00
9035;BME280;4552;43.422;24.592;2023-02-28T08:52:20;100988.13;;;5.65;100.00
9035;BME280;4552;43.422;24.592;2023-02-28T08:54:47;100958.25;;;5.47;100.00
9035;BME280;4552;43.422;24.592;2023-02-28T08:57:16;100958.56;;;5.60;100.00
9035;BME280;4552;43.422;24.592;2023-02-28T08:59:43;100972.66;;;5.71;100.00
9035;BME280;4552;43.422;24.592;2023-02-28T09:02:13;100979.72;;;5.77;100.00
9035;BME280;4552;43.422;24.592;2023-02-28T09:04:40;100947.38;;;5.64;100.00
9035;BME280;4552;43.422;24.592;2023-02-28T09:07:07;100986.88;;;5.85;100.00
9035;BME280;4552;43.422;24.592;2023-02-28T09:09:34;100988.47;;;5.80;100.00
9035;BME280;4552;43.422;24.592;2023-02-28T09:12:01;100995.03;;;5.65;100.00
9035;BME280;4552;43.422;24.592;2023-02-28T09:14:31;100987.84;;;5.53;100.00
9035;BME280;4552;43.422;24.592;2023-02-28T09:16:58;100980.88;;;5.52;100.00
9035;BME280;4552;43.422;24.592;2023-02-28T09:19:25;101002.75;;;5.62;100.00
9035;BME280;4552;43.422;24.592;2023-02-28T09:21:52;101001.97;;;5.66;100.00
9035;BME280;4552;43.422;24.592;2023-02-28T09:24:19;100996.63;;;5.60;100.00
9035;BME280;4552;43.422;24.592;2023-02-28T09:26:46;101010.09;;;5.79;100.00
9035;BME280;4552;43.422;24.592;2023-02-28T09:29:13;101016.25;;;5.83;100.00
9035;BME280;4552;43.422;24.592;2023-02-28T09:31:44;100997.75;;;5.71;100.00
9035;BME280;4552;43.422;24.592;2023-02-28T09:34:13;101004.78;;;5.76;100.00
9035;BME280;4552;43.422;24.592;2023-02-28T09:36:41;101004.66;;;5.70;100.00
9035;BME280;4552;43.422;24.592;2023-02-28T09:39:08;101008.94;;;5.67;100.00
9035;BME280;4552;43.422;24.592;2023-02-28T09:41:38;100998.72;;;5.74;100.00
9035;BME280;4552;43.422;24.592;2023-02-28T09:44:16;101002.16;;;5.75;100.00
9035;BME280;4552;43.422;24.592;2023-02-28T09:46:50;100982.75;;;5.58;100.00
9035;BME280;4552;43.422;24.592;2023-02-28T09:49:23;100967.63;;;5.40;100.00
9035;BME280;4552;43.422;24.592;2023-02-28T09:51:58;101022.03;;;5.71;100.00
9035;BME280;4552;43.422;24.592;2023-02-28T09:54:28;101020.47;;;5.79;100.00
9035;BME280;4552;43.422;24.592;2023-02-28T09:56:59;101010.31;;;5.88;100.00
9035;BME280;4552;43.422;24.592;2023-02-28T09:59:39;101011.28;;;5.93;100.00
9035;BME280;4552;43.422;24.592;2023-02-28T10:02:46;100996.41;;;5.86;100.00
9035;BME280;4552;43.422;24.592;2023-02-28T10:05:17;100989.69;;;5.94;100.00
9035;BME280;4552;43.422;24.592;2023-02-28T10:07:55;100998.34;;;5.96;100.00
9035;BME280;4552;43.422;24.592;2023-02-28T10:10:29;100987.06;;;5.94;100.00
9035;BME280;4552;43.422;24.592;2023-02-28T10:13:01;100989.69;;;5.94;100.00
9035;BME280;4552;43.422;24.592;2023-02-28T10:15:31;100976.34;;;5.81;100.00
9035;BME280;4552;43.422;24.592;2023-02-28T10:18:04;100977.00;;;5.72;100.00
9035;BME280;4552;43.422;24.592;2023-02-28T10:20:34;100983.88;;;5.70;100.00
9035;BME280;4552;43.422;24.592;2023-02-28T10:23:08;100980.66;;;5.80;100.00
9035;BME280;4552;43.422;24.592;2023-02-28T10:25:39;100979.34;;;5.97;100.00
9035;BME280;4552;43.422;24.592;2023-02-28T10:28:12;100964.63;;;5.98;100.00
9035;BME280;4552;43.422;24.592;2023-02-28T10:30:42;100969.28;;;6.12;100.00
9035;BME280;4552;43.422;24.592;2023-02-28T10:33:19;100975.34;;;6.13;100.00
9035;BME280;4552;43.422;24.592;2023-02-28T10:35:48;100943.09;;;6.03;100.00
9035;BME280;4552;43.422;24.592;2023-02-28T10:38:18;100969.22;;;6.09;100.00
9035;BME280;4552;43.422;24.592;2023-02-28T10:40:46;100963.69;;;5.94;100.00
9035;BME280;4552;43.422;24.592;2023-02-28T10:43:20;100969.03;;;6.00;100.00
9035;BME280;4552;43.422;24.592;2023-02-28T10:45:57;100952.00;;;6.14;100.00
9035;BME280;4552;43.422;24.592;2023-02-28T10:48:36;100948.47;;;6.12;100.00
9035;BME280;4552;43.422;24.592;2023-02-28T10:51:05;100964.78;;;6.05;100.00
9035;BME280;4552;43.422;24.592;2023-02-28T10:53:48;100947.16;;;5.91;100.00
9035;BME280;4552;43.422;24.592;2023-02-28T10:56:18;100950.94;;;6.05;100.00
9035;BME280;4552;43.422;24.592;2023-02-28T10:58:57;100909.59;;;6.17;100.00
9035;BME280;4552;43.422;24.592;2023-02-28T11:01:36;100927.31;;;6.37;100.00
9035;BME280;4552;43.422;24.592;2023-02-28T11:04:16;100934.44;;;6.47;100.00
9035;BME280;4552;43.422;24.592;2023-02-28T11:06:45;100934.34;;;6.41;100.00
9035;BME280;4552;43.422;24.592;2023-02-28T11:09:22;100926.25;;;6.26;100.00
9035;BME280;4552;43.422;24.592;2023-02-28T11:11:50;100946.34;;;6.36;100.00
9035;BME280;4552;43.422;24.592;2023-02-28T11:14:22;100950.63;;;6.34;100.00
9035;BME280;4552;43.422;24.592;2023-02-28T11:16:52;100928.13;;;6.35;100.00
9035;BME280;4552;43.422;24.592;2023-02-28T11:19:25;100948.69;;;6.67;100.00
9035;BME280;4552;43.422;24.592;2023-02-28T11:21:57;100928.72;;;6.66;100.00
9035;BME280;4552;43.422;24.592;2023-02-28T11:24:30;100930.84;;;6.88;100.00
9035;BME280;4552;43.422;24.592;2023-02-28T11:27:11;100933.22;;;6.75;100.00
9035;BME280;4552;43.422;24.592;2023-02-28T11:29:50;100935.19;;;6.89;100.00
9035;BME280;4552;43.422;24.592;2023-02-28T11:32:20;100940.00;;;6.67;100.00
9035;BME280;4552;43.422;24.592;2023-02-28T11:35:03;100937.75;;;6.40;100.00
9035;BME280;4552;43.422;24.592;2023-02-28T11:37:32;100940.44;;;6.43;100.00
9035;BME280;4552;43.422;24.592;2023-02-28T11:40:00;100929.72;;;6.28;100.00
9035;BME280;4552;43.422;24.592;2023-02-28T11:42:38;100932.63;;;6.42;100.00
9035;BME280;4552;43.422;24.592;2023-02-28T11:45:27;100911.75;;;6.40;100.00
9035;BME280;4552;43.422;24.592;2023-02-28T11:48:04;100938.03;;;6.54;100.00
9035;BME280;4552;43.422;24.592;2023-02-28T11:50:46;100938.50;;;6.33;100.00
9035;BME280;4552;43.422;24.592;2023-02-28T11:53:23;100943.94;;;6.45;100.00
9035;BME280;4552;43.422;24.592;2023-02-28T11:56:00;100927.19;;;6.31;100.00
9035;BME280;4552;43.422;24.592;2023-02-28T11:58:35;100939.53;;;6.41;100.00
9035;BME280;4552;43.422;24.592;2023-02-28T12:01:19;100935.97;;;6.38;100.00
9035;BME280;4552;43.422;24.592;2023-02-28T12:03:58;100910.34;;;6.11;100.00
9035;BME280;4552;43.422;24.592;2023-02-28T12:06:37;100926.25;;;6.26;100.00
9035;BME280;4552;43.422;24.592;2023-02-28T12:09:22;100921.59;;;6.12;100.00
9035;BME280;4552;43.422;24.592;2023-02-28T12:11:59;100922.81;;;6.29;100.00
9035;BME280;4552;43.422;24.592;2023-02-28T12:17:51;100910.00;;;6.38;100.00
9035;BME280;4552;43.422;24.592;2023-02-28T12:20:29;100928.44;;;6.51;100.00
9035;BME280;4552;43.422;24.592;2023-02-28T12:23:22;100938.63;;;6.39;100.00
9035;BME280;4552;43.422;24.592;2023-02-28T12:26:03;100916.63;;;6.22;100.00
9035;BME280;4552;43.422;24.592;2023-02-28T12:28:38;100900.69;;;6.06;100.00
9035;BME280;4552;43.422;24.592;2023-02-28T12:31:10;100914.44;;;5.99;100.00
9035;BME280;4552;43.422;24.592;2023-02-28T12:33:46;100935.09;;;6.37;100.00
9035;BME280;4552;43.422;24.592;2023-02-28T12:36:17;100938.56;;;6.36;100.00
9035;BME280;4552;43.422;24.592;2023-02-28T12:38:51;100892.31;;;6.19;100.00
9035;BME280;4552;43.422;24.592;2023-02-28T12:41:27;100928.47;;;6.53;100.00
9035;BME280;4552;43.422;24.592;2023-02-28T12:44:01;100896.13;;;6.39;100.00
9035;BME280;4552;43.422;24.592;2023-02-28T12:46:33;100919.44;;;6.34;100.00
9035;BME280;4552;43.422;24.592;2023-02-28T12:49:05;100928.16;;;6.36;100.00
9035;BME280;4552;43.422;24.592;2023-02-28T12:51:34;100904.44;;;6.20;100.00
9035;BME280;4552;43.422;24.592;2023-02-28T12:54:12;100934.84;;;6.24;100.00
9035;BME280;4552;43.422;24.592;2023-02-28T12:56:45;100932.00;;;6.12;100.00
9035;BME280;4552;43.422;24.592;2023-02-28T12:59:21;100908.00;;;5.82;100.00
9035;BME280;4552;43.422;24.592;2023-02-28T13:02:02;100940.16;;;5.87;100.00
9035;BME280;4552;43.422;24.592;2023-02-28T13:04:46;100942.91;;;5.94;100.00
9035;BME280;4552;43.422;24.592;2023-02-28T13:07:51;100918.50;;;5.86;100.00
9035;BME280;4552;43.422;24.592;2023-02-28T13:10:23;100936.59;;;5.83;100.00
9035;BME280;4552;43.422;24.592;2023-02-28T13:12:52;100911.72;;;5.94;100.00
9035;BME280;4552;43.422;24.592;2023-02-28T13:15:22;100915.66;;;6.16;100.00
9035;BME280;4552;43.422;24.592;2023-02-28T13:17:51;100889.25;;;5.96;100.00
9035;BME280;4552;43.422;24.592;2023-02-28T13:20:20;100931.13;;;6.10;100.00
9035;BME280;4552;43.422;24.592;2023-02-28T13:22:49;100928.72;;;5.80;100.00
9035;BME280;4552;43.422;24.592;2023-02-28T13:25:52;100918.97;;;5.70;100.00
9035;BME280;4552;43.422;24.592;2023-02-28T13:31:33;100930.66;;;5.89;100.00
9035;BME280;4552;43.422;24.592;2023-02-28T13:34:20;100939.53;;;5.98;100.00
9035;BME280;4552;43.422;24.592;2023-02-28T13:36:48;100922.66;;;5.81;100.00